Nevsehir, Turkey
Current Conditions -  °F | °C
As of 12:50 AM on Monday 22 Dec 2014 (Local Time) from LTAZ Reporting Station
Scattered Clouds Scattered Clouds  
Wind Chill: 28°   Ceiling: Unl
Heat Index: 34°   Visibility: 6mi
Dew Point: 32°   Wind: 7mph
Humidity: 93%   Direction: 110°ESE
Pressure: 30.03"   Gusts: NA
Location:  38.63°N, 34.72°E
Report Text: LTAZ 212150Z 11006KT 9999 FEW040 SCT100 01/00 Q1017
Loading
Personal Weather Stations






























Interactive Weather Map New forecast layout! Learn more

10-Day Weather Forecast

Advertisements
Track Severe Weather on mobile